sensor_id;sensor_type;location;lat;lon;timestamp;temperature;humidity
67249;SHT31;63247;54.300;18.592;2023-06-14T00:01:01;14.34;82.24
67249;SHT31;63247;54.300;18.592;2023-06-14T00:03:28;14.29;82.44
67249;SHT31;63247;54.300;18.592;2023-06-14T00:05:54;14.37;81.96
67249;SHT31;63247;54.300;18.592;2023-06-14T00:08:19;14.51;81.66
67249;SHT31;63247;54.300;18.592;2023-06-14T00:10:46;14.48;81.91
67249;SHT31;63247;54.300;18.592;2023-06-14T00:13:12;14.46;82.08
67249;SHT31;63247;54.300;18.592;2023-06-14T00:15:38;14.47;82.10
67249;SHT31;63247;54.300;18.592;2023-06-14T00:18:04;14.44;82.45
67249;SHT31;63247;54.300;18.592;2023-06-14T00:20:31;14.48;82.54
67249;SHT31;63247;54.300;18.592;2023-06-14T00:22:58;14.44;82.41
67249;SHT31;63247;54.300;18.592;2023-06-14T00:25:24;14.47;82.72
67249;SHT31;63247;54.300;18.592;2023-06-14T00:27:50;14.50;82.93
67249;SHT31;63247;54.300;18.592;2023-06-14T00:30:16;14.43;82.93
67249;SHT31;63247;54.300;18.592;2023-06-14T00:32:41;14.44;83.16
67249;SHT31;63247;54.300;18.592;2023-06-14T00:35:08;14.46;83.18
67249;SHT31;63247;54.300;18.592;2023-06-14T00:37:34;14.38;83.67
67249;SHT31;63247;54.300;18.592;2023-06-14T00:40:00;14.44;83.72
67249;SHT31;63247;54.300;18.592;2023-06-14T00:42:27;14.63;83.51
67249;SHT31;63247;54.300;18.592;2023-06-14T00:44:52;14.61;83.84
67249;SHT31;63247;54.300;18.592;2023-06-14T00:47:18;14.56;84.10
67249;SHT31;63247;54.300;18.592;2023-06-14T00:49:48;14.41;84.33
67249;SHT31;63247;54.300;18.592;2023-06-14T00:52:15;14.41;84.33
67249;SHT31;63247;54.300;18.592;2023-06-14T00:54:41;14.53;84.72
67249;SHT31;63247;54.300;18.592;2023-06-14T00:57:07;14.48;84.54
67249;SHT31;63247;54.300;18.592;2023-06-14T00:59:36;14.53;84.42
67249;SHT31;63247;54.300;18.592;2023-06-14T01:02:04;14.51;84.74
67249;SHT31;63247;54.300;18.592;2023-06-14T01:04:29;14.46;85.41
67249;SHT31;63247;54.300;18.592;2023-06-14T01:09:34;14.74;85.14
67249;SHT31;63247;54.300;18.592;2023-06-14T01:12:13;14.74;85.36
67249;SHT31;63247;54.300;18.592;2023-06-14T01:14:39;14.75;85.53
67249;SHT31;63247;54.300;18.592;2023-06-14T01:17:05;14.80;85.42
67249;SHT31;63247;54.300;18.592;2023-06-14T01:19:33;14.77;85.65
67249;SHT31;63247;54.300;18.592;2023-06-14T01:22:00;14.67;85.94
67249;SHT31;63247;54.300;18.592;2023-06-14T01:24:26;14.64;86.22
67249;SHT31;63247;54.300;18.592;2023-06-14T01:26:55;14.59;86.41
67249;SHT31;63247;54.300;18.592;2023-06-14T01:29:22;14.68;86.09
67249;SHT31;63247;54.300;18.592;2023-06-14T01:31:49;14.63;86.33
67249;SHT31;63247;54.300;18.592;2023-06-14T01:34:15;14.50;86.81
67249;SHT31;63247;54.300;18.592;2023-06-14T01:36:44;14.48;86.94
67249;SHT31;63247;54.300;18.592;2023-06-14T01:39:14;14.44;87.23
67249;SHT31;63247;54.300;18.592;2023-06-14T01:41:41;14.44;87.29
67249;SHT31;63247;54.300;18.592;2023-06-14T01:44:08;14.44;87.40
67249;SHT31;63247;54.300;18.592;2023-06-14T01:46:34;14.48;87.54
67249;SHT31;63247;54.300;18.592;2023-06-14T01:49:01;14.50;87.63
67249;SHT31;63247;54.300;18.592;2023-06-14T01:51:27;14.48;87.85
67249;SHT31;63247;54.300;18.592;2023-06-14T01:53:52;14.57;87.69
67249;SHT31;63247;54.300;18.592;2023-06-14T01:56:18;14.59;87.52
67249;SHT31;63247;54.300;18.592;2023-06-14T01:58:43;14.50;88.26
67249;SHT31;63247;54.300;18.592;2023-06-14T02:01:09;14.54;88.04
67249;SHT31;63247;54.300;18.592;2023-06-14T02:03:34;14.56;88.03
67249;SHT31;63247;54.300;18.592;2023-06-14T02:06:00;14.54;88.23
67249;SHT31;63247;54.300;18.592;2023-06-14T02:08:26;14.43;88.63
67249;SHT31;63247;54.300;18.592;2023-06-14T02:10:51;14.40;88.77
67249;SHT31;63247;54.300;18.592;2023-06-14T02:13:17;14.38;88.87
67249;SHT31;63247;54.300;18.592;2023-06-14T02:15:42;14.34;89.00
67249;SHT31;63247;54.300;18.592;2023-06-14T02:18:09;14.37;88.86
67249;SHT31;63247;54.300;18.592;2023-06-14T02:20:35;14.37;89.02
67249;SHT31;63247;54.300;18.592;2023-06-14T02:23:01;14.36;89.14
67249;SHT31;63247;54.300;18.592;2023-06-14T02:25:26;14.26;89.64
67249;SHT31;63247;54.300;18.592;2023-06-14T02:27:53;14.29;89.41
67249;SHT31;63247;54.300;18.592;2023-06-14T02:30:20;14.40;89.27
67249;SHT31;63247;54.300;18.592;2023-06-14T02:32:45;14.44;89.18
67249;SHT31;63247;54.300;18.592;2023-06-14T02:35:12;14.47;89.16
67249;SHT31;63247;54.300;18.592;2023-06-14T02:37:38;14.53;89.28
67249;SHT31;63247;54.300;18.592;2023-06-14T02:40:05;14.64;88.98
67249;SHT31;63247;54.300;18.592;2023-06-14T02:42:31;14.75;88.81
67249;SHT31;63247;54.300;18.592;2023-06-14T02:44:56;14.83;88.71
67249;SHT31;63247;54.300;18.592;2023-06-14T02:47:22;14.89;88.54
67249;SHT31;63247;54.300;18.592;2023-06-14T02:49:47;14.94;88.50
67249;SHT31;63247;54.300;18.592;2023-06-14T02:52:13;15.15;87.73
67249;SHT31;63247;54.300;18.592;2023-06-14T02:54:38;15.28;87.53
67249;SHT31;63247;54.300;18.592;2023-06-14T02:57:04;15.38;87.40
67249;SHT31;63247;54.300;18.592;2023-06-14T02:59:32;15.56;86.91
67249;SHT31;63247;54.300;18.592;2023-06-14T03:01:57;15.56;86.96
67249;SHT31;63247;54.300;18.592;2023-06-14T03:04:22;15.43;87.37
67249;SHT31;63247;54.300;18.592;2023-06-14T03:06:51;15.47;87.23
67249;SHT31;63247;54.300;18.592;2023-06-14T03:09:17;15.53;87.40
67249;SHT31;63247;54.300;18.592;2023-06-14T03:11:42;15.56;87.37
67249;SHT31;63247;54.300;18.592;2023-06-14T03:14:08;15.64;87.31
67249;SHT31;63247;54.300;18.592;2023-06-14T03:16:33;15.62;87.39
67249;SHT31;63247;54.300;18.592;2023-06-14T03:18:59;15.53;87.86
67249;SHT31;63247;54.300;18.592;2023-06-14T03:21:25;15.52;87.98
67249;SHT31;63247;54.300;18.592;2023-06-14T03:23:51;15.49;88.19
67249;SHT31;63247;54.300;18.592;2023-06-14T03:26:18;15.49;88.14
67249;SHT31;63247;54.300;18.592;2023-06-14T03:28:47;15.53;88.03
67249;SHT31;63247;54.300;18.592;2023-06-14T03:31:13;15.53;88.13
67249;SHT31;63247;54.300;18.592;2023-06-14T03:33:39;15.53;88.25
67249;SHT31;63247;54.300;18.592;2023-06-14T03:36:05;15.63;87.84
67249;SHT31;63247;54.300;18.592;2023-06-14T03:38:32;15.63;88.12
67249;SHT31;63247;54.300;18.592;2023-06-14T03:40:57;15.64;88.10
67249;SHT31;63247;54.300;18.592;2023-06-14T03:43:23;15.62;88.37
67249;SHT31;63247;54.300;18.592;2023-06-14T03:45:48;15.66;88.31
67249;SHT31;63247;54.300;18.592;2023-06-14T03:48:13;15.66;88.21
67249;SHT31;63247;54.300;18.592;2023-06-14T03:50:39;15.67;88.11
67249;SHT31;63247;54.300;18.592;2023-06-14T03:53:04;15.56;88.76
67249;SHT31;63247;54.300;18.592;2023-06-14T03:55:30;15.56;88.76
67249;SHT31;63247;54.300;18.592;2023-06-14T03:57:59;15.57;88.83
67249;SHT31;63247;54.300;18.592;2023-06-14T04:00:25;15.63;88.89
67249;SHT31;63247;54.300;18.592;2023-06-14T04:02:50;15.69;88.88
67249;SHT31;63247;54.300;18.592;2023-06-14T04:05:16;15.71;88.82
67249;SHT31;63247;54.300;18.592;2023-06-14T04:07:44;15.77;88.69
67249;SHT31;63247;54.300;18.592;2023-06-14T04:10:12;15.84;88.72
67249;SHT31;63247;54.300;18.592;2023-06-14T04:12:37;15.96;88.57
67249;SHT31;63247;54.300;18.592;2023-06-14T04:15:03;16.07;88.13
67249;SHT31;63247;54.300;18.592;2023-06-14T04:17:31;16.19;87.74
67249;SHT31;63247;54.300;18.592;2023-06-14T04:19:58;16.55;86.93
67249;SHT31;63247;54.300;18.592;2023-06-14T04:22:25;17.48;84.27
67249;SHT31;63247;54.300;18.592;2023-06-14T04:24:54;17.97;82.54
67249;SHT31;63247;54.300;18.592;2023-06-14T04:27:22;18.64;80.67
67249;SHT31;63247;54.300;18.592;2023-06-14T04:29:53;18.75;80.35
67249;SHT31;63247;54.300;18.592;2023-06-14T04:32:23;18.81;80.18
67249;SHT31;63247;54.300;18.592;2023-06-14T04:34:50;18.62;80.41
67249;SHT31;63247;54.300;18.592;2023-06-14T04:37:19;18.60;80.26
67249;SHT31;63247;54.300;18.592;2023-06-14T04:39:49;18.58;80.36
67249;SHT31;63247;54.300;18.592;2023-06-14T04:42:15;18.12;81.49
67249;SHT31;63247;54.300;18.592;2023-06-14T04:44:42;18.07;81.53
67249;SHT31;63247;54.300;18.592;2023-06-14T04:47:12;18.02;81.80
67249;SHT31;63247;54.300;18.592;2023-06-14T04:49:38;18.10;81.39
67249;SHT31;63247;54.300;18.592;2023-06-14T04:52:05;18.33;81.03
67249;SHT31;63247;54.300;18.592;2023-06-14T04:54:31;18.62;79.87
67249;SHT31;63247;54.300;18.592;2023-06-14T04:56:59;19.10;78.86
67249;SHT31;63247;54.300;18.592;2023-06-14T04:59:24;19.57;78.07
67249;SHT31;63247;54.300;18.592;2023-06-14T05:01:50;20.02;76.76
67249;SHT31;63247;54.300;18.592;2023-06-14T05:04:17;20.29;76.26
67249;SHT31;63247;54.300;18.592;2023-06-14T05:06:43;20.69;75.23
67249;SHT31;63247;54.300;18.592;2023-06-14T05:09:11;21.19;74.06
67249;SHT31;63247;54.300;18.592;2023-06-14T05:11:36;20.66;74.03
67249;SHT31;63247;54.300;18.592;2023-06-14T05:14:01;20.83;74.00
67249;SHT31;63247;54.300;18.592;2023-06-14T05:16:27;20.74;74.67
67249;SHT31;63247;54.300;18.592;2023-06-14T05:18:52;20.40;74.63
67249;SHT31;63247;54.300;18.592;2023-06-14T05:21:18;20.49;74.63
67249;SHT31;63247;54.300;18.592;2023-06-14T05:23:44;20.36;75.34
67249;SHT31;63247;54.300;18.592;2023-06-14T05:26:10;20.08;75.15
67249;SHT31;63247;54.300;18.592;2023-06-14T05:28:36;20.33;74.33
67249;SHT31;63247;54.300;18.592;2023-06-14T05:31:02;20.46;74.67
67249;SHT31;63247;54.300;18.592;2023-06-14T05:33:27;20.12;74.88
67249;SHT31;63247;54.300;18.592;2023-06-14T05:35:52;20.08;74.33
67249;SHT31;63247;54.300;18.592;2023-06-14T05:38:18;20.47;74.53
67249;SHT31;63247;54.300;18.592;2023-06-14T05:40:43;21.02;72.96
67249;SHT31;63247;54.300;18.592;2023-06-14T05:43:09;21.14;71.89
67249;SHT31;63247;54.300;18.592;2023-06-14T05:45:35;20.74;72.69
67249;SHT31;63247;54.300;18.592;2023-06-14T05:48:01;21.08;72.04
67249;SHT31;63247;54.300;18.592;2023-06-14T05:50:26;21.53;70.39
67249;SHT31;63247;54.300;18.592;2023-06-14T05:52:53;20.64;72.87
67249;SHT31;63247;54.300;18.592;2023-06-14T05:55:19;20.11;73.86
67249;SHT31;63247;54.300;18.592;2023-06-14T05:57:45;20.21;74.08
67249;SHT31;63247;54.300;18.592;2023-06-14T06:00:11;20.97;72.48
67249;SHT31;63247;54.300;18.592;2023-06-14T06:02:40;21.19;71.85
67249;SHT31;63247;54.300;18.592;2023-06-14T06:05:06;21.94;69.99
67249;SHT31;63247;54.300;18.592;2023-06-14T06:07:31;22.31;69.54
67249;SHT31;63247;54.300;18.592;2023-06-14T06:09:57;22.69;67.86
67249;SHT31;63247;54.300;18.592;2023-06-14T06:12:22;22.16;68.65
67249;SHT31;63247;54.300;18.592;2023-06-14T06:14:48;22.54;67.48
67249;SHT31;63247;54.300;18.592;2023-06-14T06:17:13;23.64;65.10
67249;SHT31;63247;54.300;18.592;2023-06-14T06:19:39;23.90;63.67
67249;SHT31;63247;54.300;18.592;2023-06-14T06:22:05;24.99;62.70
67249;SHT31;63247;54.300;18.592;2023-06-14T06:24:31;23.27;64.32
67249;SHT31;63247;54.300;18.592;2023-06-14T06:26:57;22.06;68.22
67249;SHT31;63247;54.300;18.592;2023-06-14T06:29:22;22.24;68.43
67249;SHT31;63247;54.300;18.592;2023-06-14T06:31:48;22.11;65.78
67249;SHT31;63247;54.300;18.592;2023-06-14T06:34:13;23.46;60.82
67249;SHT31;63247;54.300;18.592;2023-06-14T06:36:39;25.28;57.33
67249;SHT31;63247;54.300;18.592;2023-06-14T06:39:04;26.32;57.25
67249;SHT31;63247;54.300;18.592;2023-06-14T06:41:37;25.14;58.51
67249;SHT31;63247;54.300;18.592;2023-06-14T06:44:05;26.31;54.71
67249;SHT31;63247;54.300;18.592;2023-06-14T06:46:32;26.35;54.46
67249;SHT31;63247;54.300;18.592;2023-06-14T06:48:57;26.28;53.26
67249;SHT31;63247;54.300;18.592;2023-06-14T06:51:23;27.58;54.11
67249;SHT31;63247;54.300;18.592;2023-06-14T06:53:54;28.99;52.53
67249;SHT31;63247;54.300;18.592;2023-06-14T06:56:21;30.53;47.99
67249;SHT31;63247;54.300;18.592;2023-06-14T06:58:51;28.54;49.04
67249;SHT31;63247;54.300;18.592;2023-06-14T07:01:17;29.46;47.56
67249;SHT31;63247;54.300;18.592;2023-06-14T07:03:43;28.50;48.97
67249;SHT31;63247;54.300;18.592;2023-06-14T07:06:09;26.48;52.35
67249;SHT31;63247;54.300;18.592;2023-06-14T07:08:35;24.43;55.10
67249;SHT31;63247;54.300;18.592;2023-06-14T07:11:01;23.51;57.07
67249;SHT31;63247;54.300;18.592;2023-06-14T07:13:27;23.21;57.87
67249;SHT31;63247;54.300;18.592;2023-06-14T07:15:58;23.82;57.19
67249;SHT31;63247;54.300;18.592;2023-06-14T07:18:23;23.77;57.74
67249;SHT31;63247;54.300;18.592;2023-06-14T07:20:49;23.84;56.89
67249;SHT31;63247;54.300;18.592;2023-06-14T07:23:15;24.16;55.89
67249;SHT31;63247;54.300;18.592;2023-06-14T07:25:41;23.81;56.88
67249;SHT31;63247;54.300;18.592;2023-06-14T07:28:07;24.10;57.13
67249;SHT31;63247;54.300;18.592;2023-06-14T07:30:32;24.13;57.29
67249;SHT31;63247;54.300;18.592;2023-06-14T07:33:01;23.06;57.75
67249;SHT31;63247;54.300;18.592;2023-06-14T07:35:26;23.54;57.67
67249;SHT31;63247;54.300;18.592;2023-06-14T07:37:52;23.06;58.03
67249;SHT31;63247;54.300;18.592;2023-06-14T07:40:17;23.34;58.50
67249;SHT31;63247;54.300;18.592;2023-06-14T07:42:43;24.92;55.46
67249;SHT31;63247;54.300;18.592;2023-06-14T07:45:09;24.92;55.62
67249;SHT31;63247;54.300;18.592;2023-06-14T07:47:34;23.88;57.02
67249;SHT31;63247;54.300;18.592;2023-06-14T07:50:00;23.46;57.71
67249;SHT31;63247;54.300;18.592;2023-06-14T07:52:25;22.93;57.22
67249;SHT31;63247;54.300;18.592;2023-06-14T07:54:50;23.10;58.30
67249;SHT31;63247;54.300;18.592;2023-06-14T07:57:16;22.77;59.16
67249;SHT31;63247;54.300;18.592;2023-06-14T07:59:42;24.22;57.43
67249;SHT31;63247;54.300;18.592;2023-06-14T08:02:07;25.36;53.99
67249;SHT31;63247;54.300;18.592;2023-06-14T08:04:33;24.30;55.12
67249;SHT31;63247;54.300;18.592;2023-06-14T08:06:59;23.19;58.59
67249;SHT31;63247;54.300;18.592;2023-06-14T08:09:26;24.46;54.98
67249;SHT31;63247;54.300;18.592;2023-06-14T08:11:53;23.57;56.32
67249;SHT31;63247;54.300;18.592;2023-06-14T08:14:19;22.89;57.63
67249;SHT31;63247;54.300;18.592;2023-06-14T08:16:44;23.65;57.85
67249;SHT31;63247;54.300;18.592;2023-06-14T08:19:10;24.95;53.67
67249;SHT31;63247;54.300;18.592;2023-06-14T08:21:35;24.70;54.64
67249;SHT31;63247;54.300;18.592;2023-06-14T08:24:02;24.47;54.42
67249;SHT31;63247;54.300;18.592;2023-06-14T08:26:27;24.16;55.68
67249;SHT31;63247;54.300;18.592;2023-06-14T08:28:57;24.46;53.20
67249;SHT31;63247;54.300;18.592;2023-06-14T08:31:23;23.43;55.37
67249;SHT31;63247;54.300;18.592;2023-06-14T08:33:49;24.06;54.08
67249;SHT31;63247;54.300;18.592;2023-06-14T08:36:14;23.89;54.32
67249;SHT31;63247;54.300;18.592;2023-06-14T08:38:40;24.06;54.82
67249;SHT31;63247;54.300;18.592;2023-06-14T08:41:05;23.57;55.79
67249;SHT31;63247;54.300;18.592;2023-06-14T08:43:31;23.58;55.78
67249;SHT31;63247;54.300;18.592;2023-06-14T08:45:58;24.19;55.30
67249;SHT31;63247;54.300;18.592;2023-06-14T08:48:26;23.81;56.77
67249;SHT31;63247;54.300;18.592;2023-06-14T08:50:57;23.90;55.61
67249;SHT31;63247;54.300;18.592;2023-06-14T08:53:28;24.32;54.90
67249;SHT31;63247;54.300;18.592;2023-06-14T08:55:57;24.09;54.00
67249;SHT31;63247;54.300;18.592;2023-06-14T08:58:25;23.09;56.27
67249;SHT31;63247;54.300;18.592;2023-06-14T09:00:51;23.99;55.90
67249;SHT31;63247;54.300;18.592;2023-06-14T09:03:18;24.81;54.31
67249;SHT31;63247;54.300;18.592;2023-06-14T09:05:45;24.70;55.50
67249;SHT31;63247;54.300;18.592;2023-06-14T09:08:12;23.88;55.91
67249;SHT31;63247;54.300;18.592;2023-06-14T09:10:39;23.82;57.22
67249;SHT31;63247;54.300;18.592;2023-06-14T09:13:05;24.44;55.29
67249;SHT31;63247;54.300;18.592;2023-06-14T09:15:31;24.54;56.50
67249;SHT31;63247;54.300;18.592;2023-06-14T09:17:57;25.23;54.97
67249;SHT31;63247;54.300;18.592;2023-06-14T09:20:24;24.23;56.26
67249;SHT31;63247;54.300;18.592;2023-06-14T09:22:49;23.77;56.75
67249;SHT31;63247;54.300;18.592;2023-06-14T09:25:15;23.39;54.95
67249;SHT31;63247;54.300;18.592;2023-06-14T09:27:41;23.67;56.89
67249;SHT31;63247;54.300;18.592;2023-06-14T09:30:09;23.43;56.55
67249;SHT31;63247;54.300;18.592;2023-06-14T09:32:39;23.43;56.75
67249;SHT31;63247;54.300;18.592;2023-06-14T09:35:08;24.54;53.85
67249;SHT31;63247;54.300;18.592;2023-06-14T09:37:34;24.87;53.43
67249;SHT31;63247;54.300;18.592;2023-06-14T09:40:00;23.75;54.17
67249;SHT31;63247;54.300;18.592;2023-06-14T09:42:26;23.40;55.85
67249;SHT31;63247;54.300;18.592;2023-06-14T09:44:54;24.73;54.04
67249;SHT31;63247;54.300;18.592;2023-06-14T09:47:20;24.27;55.52
67249;SHT31;63247;54.300;18.592;2023-06-14T09:49:47;24.59;54.82
67249;SHT31;63247;54.300;18.592;2023-06-14T09:52:17;23.90;55.72
67249;SHT31;63247;54.300;18.592;2023-06-14T09:54:44;24.23;54.89
67249;SHT31;63247;54.300;18.592;2023-06-14T09:57:15;24.77;55.85
67249;SHT31;63247;54.300;18.592;2023-06-14T09:59:43;24.60;54.66
67249;SHT31;63247;54.300;18.592;2023-06-14T10:02:28;24.41;55.45
67249;SHT31;63247;54.300;18.592;2023-06-14T10:05:06;23.58;57.68
67249;SHT31;63247;54.300;18.592;2023-06-14T10:07:40;23.17;58.21
67249;SHT31;63247;54.300;18.592;2023-06-14T10:10:08;23.12;59.20
67249;SHT31;63247;54.300;18.592;2023-06-14T10:12:33;23.57;58.90
67249;SHT31;63247;54.300;18.592;2023-06-14T10:14:59;23.31;57.26
67249;SHT31;63247;54.300;18.592;2023-06-14T10:20:28;23.33;58.49
67249;SHT31;63247;54.300;18.592;2023-06-14T10:25:34;24.39;57.05
67249;SHT31;63247;54.300;18.592;2023-06-14T10:30:37;24.81;55.95
67249;SHT31;63247;54.300;18.592;2023-06-14T10:33:06;23.86;57.28
67249;SHT31;63247;54.300;18.592;2023-06-14T10:35:33;23.65;58.54
67249;SHT31;63247;54.300;18.592;2023-06-14T10:38:11;24.22;58.09
67249;SHT31;63247;54.300;18.592;2023-06-14T10:40:38;23.62;57.10
67249;SHT31;63247;54.300;18.592;2023-06-14T10:43:23;23.90;57.34
67249;SHT31;63247;54.300;18.592;2023-06-14T10:46:17;25.14;54.97
67249;SHT31;63247;54.300;18.592;2023-06-14T10:48:45;24.73;54.95
67249;SHT31;63247;54.300;18.592;2023-06-14T10:51:18;24.60;55.63
67249;SHT31;63247;54.300;18.592;2023-06-14T10:53:48;25.16;55.52
67249;SHT31;63247;54.300;18.592;2023-06-14T10:56:27;24.30;56.25
67249;SHT31;63247;54.300;18.592;2023-06-14T10:58:54;23.57;56.97
67249;SHT31;63247;54.300;18.592;2023-06-14T11:01:38;23.99;56.28
67249;SHT31;63247;54.300;18.592;2023-06-14T11:04:11;24.47;56.71
67249;SHT31;63247;54.300;18.592;2023-06-14T11:06:46;25.19;54.15
67249;SHT31;63247;54.300;18.592;2023-06-14T11:11:56;23.64;57.53
67249;SHT31;63247;54.300;18.592;2023-06-14T11:14:22;23.79;56.49
67249;SHT31;63247;54.300;18.592;2023-06-14T11:16:48;23.53;55.69
67249;SHT31;63247;54.300;18.592;2023-06-14T11:19:14;23.77;55.30
67249;SHT31;63247;54.300;18.592;2023-06-14T11:21:42;23.86;56.16
67249;SHT31;63247;54.300;18.592;2023-06-14T11:24:11;24.15;55.18
67249;SHT31;63247;54.300;18.592;2023-06-14T11:26:38;23.61;54.82
67249;SHT31;63247;54.300;18.592;2023-06-14T11:29:03;24.46;54.77
67249;SHT31;63247;54.300;18.592;2023-06-14T11:31:29;24.05;54.37
67249;SHT31;63247;54.300;18.592;2023-06-14T11:33:56;24.05;55.79
67249;SHT31;63247;54.300;18.592;2023-06-14T11:36:31;24.15;55.59
67249;SHT31;63247;54.300;18.592;2023-06-14T11:39:04;24.75;54.97
67249;SHT31;63247;54.300;18.592;2023-06-14T11:41:41;24.35;55.15
67249;SHT31;63247;54.300;18.592;2023-06-14T11:44:07;24.66;55.11
67249;SHT31;63247;54.300;18.592;2023-06-14T11:46:33;23.95;53.46
67249;SHT31;63247;54.300;18.592;2023-06-14T11:48:58;24.32;53.49
67249;SHT31;63247;54.300;18.592;2023-06-14T11:51:24;23.98;53.47
67249;SHT31;63247;54.300;18.592;2023-06-14T11:53:50;24.01;54.08
67249;SHT31;63247;54.300;18.592;2023-06-14T11:56:15;24.94;53.83
67249;SHT31;63247;54.300;18.592;2023-06-14T11:58:43;23.88;52.40
67249;SHT31;63247;54.300;18.592;2023-06-14T12:01:08;24.37;52.75
67249;SHT31;63247;54.300;18.592;2023-06-14T12:03:34;23.14;51.54
67249;SHT31;63247;54.300;18.592;2023-06-14T12:06:07;24.08;52.60
67249;SHT31;63247;54.300;18.592;2023-06-14T12:08:34;23.43;53.84
67249;SHT31;63247;54.300;18.592;2023-06-14T12:11:10;23.10;53.03
67249;SHT31;63247;54.300;18.592;2023-06-14T12:13:38;23.65;54.70
67249;SHT31;63247;54.300;18.592;2023-06-14T12:16:04;24.40;56.23
67249;SHT31;63247;54.300;18.592;2023-06-14T12:18:37;24.16;54.69
67249;SHT31;63247;54.300;18.592;2023-06-14T12:21:05;23.68;55.69
67249;SHT31;63247;54.300;18.592;2023-06-14T12:23:49;23.47;57.52
67249;SHT31;63247;54.300;18.592;2023-06-14T12:26:18;23.02;55.81
67249;SHT31;63247;54.300;18.592;2023-06-14T12:28:47;23.50;56.55
67249;SHT31;63247;54.300;18.592;2023-06-14T12:31:14;23.77;55.47
67249;SHT31;63247;54.300;18.592;2023-06-14T12:33:40;23.40;55.62
67249;SHT31;63247;54.300;18.592;2023-06-14T12:36:10;22.83;56.30
67249;SHT31;63247;54.300;18.592;2023-06-14T12:38:36;23.43;56.83
67249;SHT31;63247;54.300;18.592;2023-06-14T12:41:02;22.96;55.42
67249;SHT31;63247;54.300;18.592;2023-06-14T12:43:28;23.40;55.87
67249;SHT31;63247;54.300;18.592;2023-06-14T12:45:54;23.82;56.03
67249;SHT31;63247;54.300;18.592;2023-06-14T12:48:19;24.15;54.79
67249;SHT31;63247;54.300;18.592;2023-06-14T12:50:45;24.19;56.17
67249;SHT31;63247;54.300;18.592;2023-06-14T12:53:11;23.92;56.05
67249;SHT31;63247;54.300;18.592;2023-06-14T12:55:36;23.74;56.06
67249;SHT31;63247;54.300;18.592;2023-06-14T12:58:01;22.34;61.24
67249;SHT31;63247;54.300;18.592;2023-06-14T13:00:27;22.54;61.49
67249;SHT31;63247;54.300;18.592;2023-06-14T13:02:55;22.40;59.84
67249;SHT31;63247;54.300;18.592;2023-06-14T13:05:20;22.59;58.51
67249;SHT31;63247;54.300;18.592;2023-06-14T13:07:45;22.45;58.92
67249;SHT31;63247;54.300;18.592;2023-06-14T13:10:11;22.77;59.05
67249;SHT31;63247;54.300;18.592;2023-06-14T13:12:36;23.07;58.48
67249;SHT31;63247;54.300;18.592;2023-06-14T13:15:02;22.18;60.13
67249;SHT31;63247;54.300;18.592;2023-06-14T13:17:27;22.85;58.31
67249;SHT31;63247;54.300;18.592;2023-06-14T13:19:53;23.65;58.45
67249;SHT31;63247;54.300;18.592;2023-06-14T13:22:18;24.33;58.58
67249;SHT31;63247;54.300;18.592;2023-06-14T13:24:44;24.60;56.99
67249;SHT31;63247;54.300;18.592;2023-06-14T13:27:10;24.15;56.61
67249;SHT31;63247;54.300;18.592;2023-06-14T13:29:36;23.68;57.40
67249;SHT31;63247;54.300;18.592;2023-06-14T13:32:02;23.40;58.34
67249;SHT31;63247;54.300;18.592;2023-06-14T13:34:27;23.00;56.39
67249;SHT31;63247;54.300;18.592;2023-06-14T13:36:53;22.28;60.23
67249;SHT31;63247;54.300;18.592;2023-06-14T13:39:19;22.37;59.64
67249;SHT31;63247;54.300;18.592;2023-06-14T13:41:44;22.11;61.66
67249;SHT31;63247;54.300;18.592;2023-06-14T13:44:10;21.38;64.08
67249;SHT31;63247;54.300;18.592;2023-06-14T13:46:40;22.11;63.69
67249;SHT31;63247;54.300;18.592;2023-06-14T13:49:08;22.40;62.80
67249;SHT31;63247;54.300;18.592;2023-06-14T13:51:33;22.44;62.13
67249;SHT31;63247;54.300;18.592;2023-06-14T13:54:00;22.25;62.81
67249;SHT31;63247;54.300;18.592;2023-06-14T13:56:26;22.65;61.64
67249;SHT31;63247;54.300;18.592;2023-06-14T13:58:52;22.76;60.74
67249;SHT31;63247;54.300;18.592;2023-06-14T14:01:17;22.68;62.44
67249;SHT31;63247;54.300;18.592;2023-06-14T14:03:47;22.96;60.80
67249;SHT31;63247;54.300;18.592;2023-06-14T14:06:13;22.98;61.02
67249;SHT31;63247;54.300;18.592;2023-06-14T14:08:38;23.19;60.93
67249;SHT31;63247;54.300;18.592;2023-06-14T14:11:05;22.95;60.03
67249;SHT31;63247;54.300;18.592;2023-06-14T14:13:31;23.49;60.86
67249;SHT31;63247;54.300;18.592;2023-06-14T14:15:56;23.61;61.13
67249;SHT31;63247;54.300;18.592;2023-06-14T14:18:22;23.47;61.65
67249;SHT31;63247;54.300;18.592;2023-06-14T14:20:48;23.30;62.78
67249;SHT31;63247;54.300;18.592;2023-06-14T14:23:13;22.98;63.68
67249;SHT31;63247;54.300;18.592;2023-06-14T14:25:39;22.76;61.22
67249;SHT31;63247;54.300;18.592;2023-06-14T14:28:04;22.49;61.42
67249;SHT31;63247;54.300;18.592;2023-06-14T14:30:29;22.47;61.62
67249;SHT31;63247;54.300;18.592;2023-06-14T14:32:55;22.03;61.84
67249;SHT31;63247;54.300;18.592;2023-06-14T14:35:20;22.00;63.51
67249;SHT31;63247;54.300;18.592;2023-06-14T14:37:47;21.79;63.70
67249;SHT31;63247;54.300;18.592;2023-06-14T14:40:13;21.12;65.60
67249;SHT31;63247;54.300;18.592;2023-06-14T14:42:38;21.45;64.04
67249;SHT31;63247;54.300;18.592;2023-06-14T14:45:04;21.75;63.70
67249;SHT31;63247;54.300;18.592;2023-06-14T14:47:30;21.85;63.18
67249;SHT31;63247;54.300;18.592;2023-06-14T14:49:55;21.87;62.57
67249;SHT31;63247;54.300;18.592;2023-06-14T14:52:21;21.86;63.26
67249;SHT31;63247;54.300;18.592;2023-06-14T14:54:46;21.90;62.67
67249;SHT31;63247;54.300;18.592;2023-06-14T14:57:11;21.76;62.51
67249;SHT31;63247;54.300;18.592;2023-06-14T14:59:37;21.56;62.61
67249;SHT31;63247;54.300;18.592;2023-06-14T15:02:03;21.65;61.47
67249;SHT31;63247;54.300;18.592;2023-06-14T15:04:29;21.76;61.37
67249;SHT31;63247;54.300;18.592;2023-06-14T15:06:54;21.55;62.33
67249;SHT31;63247;54.300;18.592;2023-06-14T15:09:19;21.67;60.89
67249;SHT31;63247;54.300;18.592;2023-06-14T15:11:45;21.72;60.77
67249;SHT31;63247;54.300;18.592;2023-06-14T15:14:11;21.45;61.45
67249;SHT31;63247;54.300;18.592;2023-06-14T15:16:37;21.58;61.90
67249;SHT31;63247;54.300;18.592;2023-06-14T15:19:07;21.72;62.01
67249;SHT31;63247;54.300;18.592;2023-06-14T15:21:32;21.72;62.12
67249;SHT31;63247;54.300;18.592;2023-06-14T15:23:58;21.75;61.63
67249;SHT31;63247;54.300;18.592;2023-06-14T15:26:23;21.25;62.31